Time;durP1;ratioP1;P1;durP2;ratioP2;P2;SDS_P1;SDS_P2;PMS_P1;PMS_P2;Temp;Humidity;BMP_temperature;BMP_pressure;BME280_temperature;BME280_humidity;BME280_pressure;Samples;Min_cycle;Max_cycle;Signal;HPM_P1;HPM_P2
2022/03/22 00:00:03;;;;;;;24.80;11.77;;;;;;;2.01;44.39;100366.97;5018347;28;20213;-87
2022/03/22 00:02:30;;;;;;;21.73;11.17;;;;;;;2.31;43.91;100409.75;5017953;28;20178;-88
2022/03/22 00:04:55;;;;;;;26.57;13.53;;;;;;;1.90;44.57;100363.50;5034581;28;20926;-88
2022/03/22 00:07:20;;;;;;;26.43;13.33;;;;;;;2.68;43.79;100479.84;5034885;28;20485;-87
2022/03/22 00:09:46;;;;;;;24.43;12.33;;;;;;;3.87;43.32;100654.19;5034938;28;20174;-86
2022/03/22 00:12:12;;;;;;;25.43;12.47;;;;;;;3.16;43.14;100527.56;5033843;28;20181;-87
2022/03/22 00:14:37;;;;;;;22.43;11.07;;;;;;;3.25;43.58;100538.38;5034599;28;20179;-86
2022/03/22 00:17:03;;;;;;;30.27;13.20;;;;;;;2.88;43.05;100475.03;5034597;28;20557;-88
2022/03/22 00:19:29;;;;;;;32.40;15.43;;;;;;;4.68;43.43;100768.44;5033996;28;20162;-89
2022/03/22 00:21:54;;;;;;;19.43;8.80;;;;;;;1.65;42.87;100243.03;5036302;28;20405;-88
2022/03/22 00:24:19;;;;;;;28.17;11.63;;;;;;;3.22;43.24;100500.56;5034754;28;20180;-89
2022/03/22 00:26:45;;;;;;;21.53;9.90;;;;;;;3.56;42.95;100585.47;5035347;28;20624;-87
2022/03/22 00:29:10;;;;;;;25.13;13.00;;;;;;;1.71;43.04;100253.59;5016230;28;20185;-87
2022/03/22 00:31:36;;;;;;;21.47;9.73;;;;;;;4.70;43.41;100777.84;5017868;28;20660;-88
2022/03/22 00:34:01;;;;;;;23.23;12.10;;;;;;;4.67;42.72;100759.13;5017235;28;20626;-87
2022/03/22 00:36:27;;;;;;;20.07;9.10;;;;;;;4.00;43.14;100670.44;5034408;28;20168;-88
2022/03/22 00:38:52;;;;;;;21.00;10.90;;;;;;;2.83;42.89;100426.22;5034070;28;20229;-89
2022/03/22 00:41:18;;;;;;;21.77;10.17;;;;;;;2.55;42.18;100357.03;5033702;28;20625;-88
2022/03/22 00:43:44;;;;;;;20.83;10.33;;;;;;;3.16;42.16;100465.03;5034946;28;20268;-87
2022/03/22 00:46:10;;;;;;;24.43;12.00;;;;;;;4.99;42.01;100756.94;5035553;28;20480;-88
2022/03/22 00:48:35;;;;;;;22.87;10.37;;;;;;;3.61;41.98;100523.25;5036544;28;20202;-88
2022/03/22 00:51:01;;;;;;;26.40;12.50;;;;;;;5.01;41.40;100741.28;5048407;28;20178;-87
2022/03/22 00:53:26;;;;;;;20.03;11.10;;;;;;;2.62;41.43;100313.44;5044297;28;20203;-87
2022/03/22 00:55:52;;;;;;;19.83;10.37;;;;;;;2.37;41.42;100271.28;5040277;28;20634;-88
2022/03/22 00:58:18;;;;;;;17.60;9.17;;;;;;;3.66;41.24;100497.00;5034396;28;20261;-88
2022/03/22 01:00:44;;;;;;;16.13;9.10;;;;;;;2.31;40.76;100259.84;5035561;28;20169;-87
2022/03/22 01:03:10;;;;;;;19.40;10.00;;;;;;;5.21;41.15;100733.84;5035050;28;20410;-88
2022/03/22 01:05:36;;;;;;;23.63;10.87;;;;;;;5.05;41.07;100717.34;5035121;28;20274;-86
2022/03/22 01:08:10;;;;;;;15.70;7.67;;;;;;;2.60;40.89;100279.94;5033490;28;20539;-89
2022/03/22 01:10:38;;;;;;;19.43;9.93;;;;;;;4.41;41.32;100588.00;5034908;28;20788;-89
2022/03/22 01:13:04;;;;;;;15.57;7.60;;;;;;;1.08;40.84;100014.19;5030280;28;20436;-86
2022/03/22 01:15:33;;;;;;;18.53;8.57;;;;;;;4.47;41.16;100599.44;5020168;28;20409;-88
2022/03/22 01:18:05;;;;;;;13.73;7.20;;;;;;;5.19;40.50;100712.72;5033976;28;20989;-88
2022/03/22 01:20:33;;;;;;;20.50;10.27;;;;;;;2.10;40.42;100175.53;5035138;28;20417;-87
2022/03/22 01:22:59;;;;;;;13.70;7.73;;;;;;;2.05;39.90;100175.13;5041425;28;20396;-86
2022/03/22 01:25:27;;;;;;;18.10;10.07;;;;;;;5.42;39.91;100711.28;5040479;28;20416;-88
2022/03/22 01:27:54;;;;;;;18.60;8.90;;;;;;;3.56;39.83;100380.19;5040449;28;20945;-87
2022/03/22 01:30:21;;;;;;;19.23;9.27;;;;;;;4.96;39.63;100602.00;5054273;28;20424;-87
2022/03/22 01:32:47;;;;;;;17.90;8.77;;;;;;;4.70;39.73;100556.25;5041953;28;20409;-88
2022/03/22 01:35:13;;;;;;;15.00;7.97;;;;;;;5.56;39.47;100675.66;5038527;28;20467;-88
2022/03/22 01:37:39;;;;;;;15.83;7.57;;;;;;;3.76;39.18;100352.72;5035012;28;20828;-89
2022/03/22 01:40:07;;;;;;;20.10;10.07;;;;;;;5.24;39.41;100600.16;5034452;28;20229;-88
2022/03/22 01:42:33;;;;;;;17.93;8.97;;;;;;;3.11;38.86;100229.47;5032628;28;20554;-88
2022/03/22 01:44:59;;;;;;;15.50;8.80;;;;;;;5.34;39.04;100630.31;5033059;28;20416;-87
2022/03/22 01:47:24;;;;;;;18.57;8.83;;;;;;;2.54;38.78;100120.34;5032972;28;20453;-87
2022/03/22 01:49:51;;;;;;;18.03;10.03;;;;;;;3.70;38.67;100312.16;5035552;28;20192;-88
2022/03/22 01:52:21;;;;;;;18.43;7.03;;;;;;;5.79;38.99;100678.47;5033995;28;20166;-89
2022/03/22 01:54:51;;;;;;;17.93;9.30;;;;;;;4.52;38.74;100467.81;5015933;28;20421;-88
2022/03/22 01:57:18;;;;;;;16.50;7.90;;;;;;;5.78;39.20;100675.06;5016042;28;20429;-88
2022/03/22 01:59:45;;;;;;;17.60;8.37;;;;;;;5.05;39.39;100560.13;5033559;28;20414;-88
2022/03/22 02:07:40;;;;;;;21.77;10.93;;;;;;;5.90;38.59;100685.28;5035737;28;20448;-88
2022/03/22 02:10:06;;;;;;;16.67;9.20;;;;;;;4.25;38.64;100370.25;5032431;28;20795;-88
2022/03/22 02:12:31;;;;;;;20.40;10.43;;;;;;;4.17;38.89;100367.09;5032746;28;20515;-88
2022/03/22 02:14:57;;;;;;;19.83;9.67;;;;;;;3.63;38.20;100244.75;5015685;28;20877;-88
2022/03/22 02:17:22;;;;;;;18.37;10.27;;;;;;;4.86;38.75;100473.16;5033440;28;20161;-88
2022/03/22 02:19:48;;;;;;;18.13;9.03;;;;;;;5.24;38.80;100525.75;5031659;28;20180;-88
2022/03/22 02:22:17;;;;;;;18.83;10.00;;;;;;;4.46;38.85;100374.53;5032575;28;20637;-87
2022/03/22 02:24:42;;;;;;;19.07;9.80;;;;;;;3.00;38.84;100140.13;5033027;28;20672;-87
2022/03/22 02:27:09;;;;;;;23.13;9.97;;;;;;;3.77;38.71;100258.44;5015011;28;20552;-88
2022/03/22 02:29:35;;;;;;;15.60;7.63;;;;;;;5.93;38.86;100645.31;5031185;28;20166;-87
2022/03/22 02:32:05;;;;;;;21.73;9.67;;;;;;;5.07;39.06;100503.41;5014788;28;20935;-88
2022/03/22 02:34:31;;;;;;;15.87;8.83;;;;;;;4.05;39.01;100340.16;5015094;28;20460;-89
2022/03/22 02:36:59;;;;;;;21.97;9.77;;;;;;;4.71;39.21;100435.13;5014910;28;21219;-88
2022/03/22 02:39:25;;;;;;;16.83;7.47;;;;;;;5.96;38.60;100650.56;5032045;28;20312;-89
2022/03/22 02:41:51;;;;;;;19.50;10.43;;;;;;;5.98;39.23;100644.06;5031751;28;20841;-88
2022/03/22 02:44:20;;;;;;;21.53;11.27;;;;;;;5.14;38.97;100497.22;5031181;28;20203;-88
2022/03/22 02:46:46;;;;;;;19.83;9.87;;;;;;;5.55;38.90;100565.91;5033602;28;21003;-87
2022/03/22 02:49:13;;;;;;;21.40;9.90;;;;;;;3.14;39.07;100143.78;5014855;28;20425;-88
2022/03/22 02:51:39;;;;;;;17.50;8.83;;;;;;;3.84;39.35;100270.72;5032169;28;20803;-87
2022/03/22 02:54:04;;;;;;;21.20;10.90;;;;;;;6.01;39.15;100635.88;5032653;28;20937;-88
2022/03/22 02:56:30;;;;;;;19.53;9.20;;;;;;;4.29;39.23;100348.81;5034408;28;20449;-88
2022/03/22 02:58:55;;;;;;;22.30;10.43;;;;;;;3.85;38.99;100253.31;5052659;28;20158;-89
2022/03/22 03:01:21;;;;;;;20.87;11.13;;;;;;;3.96;38.92;100271.72;5052334;28;20165;-87
2022/03/22 03:03:46;;;;;;;20.13;9.70;;;;;;;5.23;39.21;100503.00;5033851;28;20167;-88
2022/03/22 03:06:12;;;;;;;19.37;10.23;;;;;;;4.56;39.12;100387.06;5052104;28;20196;-88
2022/03/22 03:08:37;;;;;;;20.27;9.30;;;;;;;6.05;39.01;100615.25;5052235;28;20161;-87
2022/03/22 03:11:04;;;;;;;21.50;11.03;;;;;;;4.21;38.85;100305.59;5052342;28;20633;-89
2022/03/22 03:14:38;;;;;;;20.67;9.63;;;;;;;4.97;38.98;100459.84;5034146;28;20537;-89
2022/03/22 03:16:16;;;;;;;22.47;10.93;;;;;;;3.91;38.65;100248.81;5051118;28;20396;-89
2022/03/22 03:18:41;;;;;;;25.40;9.07;;;;;;;2.95;39.19;100107.25;5052414;28;20759;-87
2022/03/22 03:21:06;;;;;;;17.40;8.50;;;;;;;5.66;38.92;100565.16;5034940;28;20628;-88
2022/03/22 03:23:32;;;;;;;14.90;7.57;;;;;;;5.21;38.99;100480.31;5052244;28;20173;-88
2022/03/22 03:25:57;;;;;;;21.63;9.90;;;;;;;2.62;38.85;100054.41;5034658;28;20204;-87
2022/03/22 03:28:23;;;;;;;19.47;9.37;;;;;;;4.40;39.26;100343.06;5054647;28;20173;-87
2022/03/22 03:30:48;;;;;;;20.20;9.63;;;;;;;4.76;38.92;100411.28;5065094;28;20161;-88
2022/03/22 03:33:14;;;;;;;21.53;8.67;;;;;;;6.15;39.00;100623.69;5053004;28;20189;-88
2022/03/22 03:35:39;;;;;;;23.33;10.00;;;;;;;5.42;38.75;100497.84;5052493;28;20183;-87
2022/03/22 03:38:04;;;;;;;15.63;7.77;;;;;;;3.06;38.70;100104.75;5034606;28;20162;-87
2022/03/22 03:41:53;;;;;;;20.67;8.70;;;;;;;5.68;38.61;100554.47;5052707;28;20196;-88
2022/03/22 03:43:15;;;;;;;21.50;10.00;;;;;;;3.01;39.00;100081.00;5053578;28;20157;-87
2022/03/22 03:48:24;;;;;;;24.30;11.10;;;;;;;6.15;38.83;100597.66;5051979;28;20223;-88
2022/03/22 03:50:50;;;;;;;23.90;10.60;;;;;;;4.75;39.26;100377.81;5051718;28;20408;-87
2022/03/22 03:53:15;;;;;;;24.33;11.97;;;;;;;4.66;39.17;100352.00;5034163;28;20297;-89
2022/03/22 03:55:41;;;;;;;19.73;9.77;;;;;;;4.64;38.90;100365.16;5035229;28;20201;-88
2022/03/22 03:58:07;;;;;;;17.63;10.03;;;;;;;4.67;39.29;100370.41;5052225;28;20614;-87
2022/03/22 04:00:32;;;;;;;18.10;9.00;;;;;;;5.95;39.34;100598.56;5034885;28;20423;-88
2022/03/22 04:02:58;;;;;;;24.43;12.33;;;;;;;5.42;38.78;100500.34;5035565;28;20624;-88
2022/03/22 04:05:23;;;;;;;23.27;10.33;;;;;;;4.98;39.20;100432.38;5061725;28;20251;-88
2022/03/22 04:07:49;;;;;;;21.40;10.23;;;;;;;4.68;39.30;100362.13;5078938;28;20203;-86
2022/03/22 04:10:14;;;;;;;20.60;9.80;;;;;;;5.09;39.49;100441.66;5059567;28;20180;-88
2022/03/22 04:12:44;;;;;;;19.43;9.33;;;;;;;5.74;39.06;100539.03;5045197;28;20252;-86
2022/03/22 04:15:10;;;;;;;20.87;10.00;;;;;;;5.84;39.19;100554.06;5039321;28;20270;-88
2022/03/22 04:17:36;;;;;;;22.73;12.30;;;;;;;4.13;39.29;100251.47;5038017;28;20969;-87
2022/03/22 04:20:02;;;;;;;19.03;9.70;;;;;;;6.19;39.04;100605.56;5054833;28;20172;-87
2022/03/22 04:22:27;;;;;;;21.07;10.40;;;;;;;5.96;39.17;100582.72;5037797;28;20196;-87
2022/03/22 04:24:53;;;;;;;22.87;9.87;;;;;;;4.28;39.00;100302.84;5055677;28;20900;-89
2022/03/22 04:32:47;;;;;;;27.17;12.07;;;;;;;6.15;39.19;100608.59;5059554;28;20477;-89
2022/03/22 04:35:17;;;;;;;21.37;10.17;;;;;;;6.16;39.48;100604.41;5055308;28;20396;-88
2022/03/22 04:37:43;;;;;;;23.73;11.53;;;;;;;4.56;39.33;100333.56;5037864;28;20180;-87
2022/03/22 04:40:10;;;;;;;33.67;13.47;;;;;;;5.84;39.88;100574.19;5058521;28;20474;-88
2022/03/22 04:42:36;;;;;;;25.80;10.83;;;;;;;6.10;39.68;100599.78;5037643;28;20185;-87
2022/03/22 04:45:02;;;;;;;19.20;9.80;;;;;;;6.13;39.71;100602.56;5036705;28;20807;-87
2022/03/22 04:47:29;;;;;;;24.77;11.37;;;;;;;4.23;39.93;100280.66;5055828;28;20264;-88
2022/03/22 04:49:54;;;;;;;26.67;12.63;;;;;;;4.50;39.79;100341.47;5036885;28;20412;-87
2022/03/22 04:57:48;;;;;;;19.53;9.17;;;;;;;5.19;39.97;100459.19;5055263;28;20405;-88
2022/03/22 05:00:13;;;;;;;36.27;15.83;;;;;;;4.98;39.74;100449.94;5037367;28;20408;-87
2022/03/22 05:02:39;;;;;;;36.17;16.63;;;;;;;4.77;40.15;100385.47;5037106;28;20201;-88
2022/03/22 05:05:04;;;;;;;30.13;14.07;;;;;;;4.70;39.90;100383.19;5036819;28;20551;-88
2022/03/22 05:07:30;;;;;;;29.23;14.73;;;;;;;5.75;39.91;100545.78;5036469;28;20250;-87
2022/03/22 05:09:55;;;;;;;24.37;12.13;;;;;;;3.64;40.05;100198.06;5054714;28;20166;-88
2022/03/22 05:12:21;;;;;;;25.70;11.47;;;;;;;5.08;40.10;100477.53;5036553;28;20652;-87
2022/03/22 05:14:50;;;;;;;22.13;9.20;;;;;;;5.92;40.11;100603.34;5035825;28;20166;-87
2022/03/22 05:17:21;;;;;;;20.83;10.17;;;;;;;5.99;40.29;100590.50;5036478;28;20171;-87
2022/03/22 05:19:46;;;;;;;21.57;9.37;;;;;;;3.90;40.14;100233.69;5036435;28;20493;-89
2022/03/22 05:22:11;;;;;;;21.30;10.17;;;;;;;3.56;39.95;100173.28;5054255;28;20888;-89
2022/03/22 05:24:37;;;;;;;21.70;10.03;;;;;;;5.74;40.08;100542.38;5055059;28;20192;-88
2022/03/22 05:27:02;;;;;;;22.30;10.43;;;;;;;4.42;39.77;100314.00;5037529;28;20588;-88
2022/03/22 05:29:29;;;;;;;18.77;9.07;;;;;;;4.67;40.51;100346.22;5038116;28;20223;-90
2022/03/22 05:31:54;;;;;;;22.90;11.30;;;;;;;3.76;39.87;100179.97;5060345;28;20168;-89
2022/03/22 05:34:20;;;;;;;26.47;11.87;;;;;;;4.73;39.71;100315.72;5038661;28;20805;-87
2022/03/22 05:36:45;;;;;;;21.07;10.10;;;;;;;5.54;39.71;100462.06;5057345;28;20157;-87
2022/03/22 05:39:10;;;;;;;24.83;12.53;;;;;;;5.87;39.89;100516.66;5035280;28;20216;-86
2022/03/22 05:41:36;;;;;;;26.70;13.23;;;;;;;5.89;39.65;100515.16;5058345;28;20188;-86
2022/03/22 05:44:01;;;;;;;29.83;12.77;;;;;;;6.28;39.90;100582.78;5057937;28;20197;-87
2022/03/22 05:46:26;;;;;;;26.10;13.03;;;;;;;4.93;39.73;100338.28;5078284;28;20203;-88
2022/03/22 05:48:52;;;;;;;22.47;9.67;;;;;;;4.68;39.53;100272.75;5077070;28;20168;-89
2022/03/22 05:51:17;;;;;;;24.80;11.67;;;;;;;6.09;39.73;100512.56;5040985;28;20296;-88
2022/03/22 05:53:44;;;;;;;23.10;10.47;;;;;;;4.31;39.13;100186.94;5035859;28;20180;-88
2022/03/22 05:56:10;;;;;;;23.13;11.13;;;;;;;6.23;38.94;100534.66;5052443;28;20563;-88
2022/03/22 05:58:36;;;;;;;25.83;12.03;;;;;;;4.62;39.00;100226.22;5053789;28;20391;-88
2022/03/22 06:01:01;;;;;;;24.37;12.07;;;;;;;4.56;39.36;100198.19;5068512;28;20161;-87
2022/03/22 06:03:27;;;;;;;26.03;12.07;;;;;;;6.05;38.96;100425.09;5056147;28;20704;-87
2022/03/22 06:05:52;;;;;;;24.53;12.90;;;;;;;6.92;38.25;100566.88;5055475;28;20187;-87
2022/03/22 06:08:19;;;;;;;16.90;8.77;;;;;;;6.68;38.55;100508.75;5073526;28;20164;-89
2022/03/22 06:10:45;;;;;;;30.23;11.87;;;;;;;5.64;38.75;100330.53;5055515;28;20194;-88
2022/03/22 06:13:11;;;;;;;27.00;12.77;;;;;;;5.71;38.35;100330.28;5064204;28;20422;-87
2022/03/22 06:15:38;;;;;;;22.67;11.70;;;;;;;6.51;38.83;100444.59;5064263;28;20410;-86
2022/03/22 06:18:05;;;;;;;24.37;11.83;;;;;;;7.23;38.41;100580.16;5060520;28;20172;-84
2022/03/22 06:20:33;;;;;;;21.80;10.47;;;;;;;7.40;38.06;100571.34;5079889;28;20407;-84
2022/03/22 06:23:01;;;;;;;35.37;16.37;;;;;;;5.26;37.65;100177.81;5084558;28;20403;-85
2022/03/22 06:25:27;;;;;;;30.10;14.00;;;;;;;4.67;37.96;100057.81;5080679;28;20412;-86
2022/03/22 06:27:55;;;;;;;30.63;13.17;;;;;;;6.09;37.28;100276.31;5066509;28;20464;-85
2022/03/22 06:30:21;;;;;;;21.97;10.83;;;;;;;5.48;36.74;100154.34;5063598;28;20407;-86
2022/03/22 06:32:51;;;;;;;25.70;10.33;;;;;;;7.98;36.52;100561.38;5054486;28;20448;-86
2022/03/22 06:35:23;;;;;;;25.70;10.40;;;;;;;7.35;36.75;100437.53;5069711;28;20399;-87
2022/03/22 06:37:50;;;;;;;22.37;10.33;;;;;;;8.06;37.19;100560.28;5054589;28;20415;-86
2022/03/22 06:40:18;;;;;;;27.60;10.70;;;;;;;5.87;36.36;100158.22;5067569;28;20459;-86
2022/03/22 06:42:44;;;;;;;21.90;10.00;;;;;;;8.27;37.28;100556.78;5059158;28;20419;-86
2022/03/22 06:45:11;;;;;;;22.37;9.90;;;;;;;7.54;37.00;100412.88;5051969;28;20513;-87
2022/03/22 06:47:39;;;;;;;25.27;11.03;;;;;;;7.95;36.85;100457.78;5068331;28;20185;-86
2022/03/22 06:50:08;;;;;;;22.23;10.40;;;;;;;8.58;36.54;100522.84;5047324;28;20181;-87
2022/03/22 06:52:34;;;;;;;21.37;8.40;;;;;;;7.56;36.20;100335.75;5055267;28;20169;-86
2022/03/22 06:55:00;;;;;;;28.17;11.90;;;;;;;7.47;35.34;100281.34;5053895;28;20633;-86
2022/03/22 06:57:28;;;;;;;18.23;8.73;;;;;;;8.11;34.98;100379.91;5041131;28;20162;-87
2022/03/22 06:59:54;;;;;;;21.40;10.40;;;;;;;8.68;35.81;100449.50;5042040;28;20177;-87
2022/03/22 07:02:20;;;;;;;19.40;9.73;;;;;;;9.20;35.23;100531.31;5027911;28;20185;-86
2022/03/22 07:04:46;;;;;;;22.97;11.27;;;;;;;7.48;34.54;100260.41;5041344;28;20173;-87
2022/03/22 07:07:12;;;;;;;17.43;9.57;;;;;;;7.67;34.42;100274.38;5032564;28;20304;-87
2022/03/22 07:09:37;;;;;;;29.90;14.80;;;;;;;6.05;34.54;99960.16;5031982;28;20717;-86
2022/03/22 07:12:03;;;;;;;21.00;10.10;;;;;;;8.97;34.59;100408.53;5057875;28;20172;-87
2022/03/22 07:14:29;;;;;;;19.20;10.27;;;;;;;8.85;34.57;100382.47;5060423;28;20199;-87
2022/03/22 07:16:55;;;;;;;21.07;10.17;;;;;;;7.69;34.44;100151.03;5082504;28;20161;-87
2022/03/22 07:19:23;;;;;;;21.93;11.67;;;;;;;8.89;34.33;100324.72;5058759;28;20672;-85
2022/03/22 07:21:50;;;;;;;18.60;10.23;;;;;;;10.05;33.60;100520.94;5071488;28;20252;-86
2022/03/22 07:24:20;;;;;;;22.50;9.87;;;;;;;9.58;33.40;100393.16;5071578;28;20182;-88
2022/03/22 07:26:46;;;;;;;25.10;9.80;;;;;;;10.23;33.51;100525.44;5072063;28;20188;-87
2022/03/22 07:29:13;;;;;;;20.23;9.67;;;;;;;8.06;33.36;100141.69;5057950;28;20223;-86
2022/03/22 07:31:40;;;;;;;23.57;12.23;;;;;;;10.24;33.65;100476.59;5059095;28;20196;-85
2022/03/22 07:34:08;;;;;;;24.60;12.87;;;;;;;10.94;33.38;100525.69;5026443;28;20167;-87
2022/03/22 07:36:37;;;;;;;38.37;16.37;;;;;;;9.78;33.06;100316.88;5037393;28;20166;-86
2022/03/22 07:39:07;;;;;;;29.20;15.07;;;;;;;11.16;32.83;100505.00;5018328;28;20641;-87
2022/03/22 07:41:33;;;;;;;24.40;12.60;;;;;;;11.18;32.32;100514.47;5047186;28;20629;-87
2022/03/22 07:44:00;;;;;;;28.47;13.83;;;;;;;11.13;32.52;100505.72;5055888;28;20219;-86
2022/03/22 07:46:26;;;;;;;25.37;11.93;;;;;;;9.02;32.77;100149.59;5054605;28;20192;-86
2022/03/22 07:48:52;;;;;;;22.53;11.33;;;;;;;11.28;32.48;100505.75;5056485;28;20181;-87
2022/03/22 07:54:02;;;;;;;22.67;13.00;;;;;;;11.70;32.48;100482.00;5061973;28;20295;-88
2022/03/22 07:56:28;;;;;;;55.47;26.07;;;;;;;9.95;32.12;100136.66;5059392;28;20650;-86
2022/03/22 07:58:53;;;;;;;54.00;22.53;;;;;;;10.61;32.05;100192.81;5054893;28;20203;-87
2022/03/22 08:01:19;;;;;;;45.27;19.57;;;;;;;11.29;32.32;100380.72;5045937;28;20602;-85
2022/03/22 08:03:45;;;;;;;48.17;19.27;;;;;;;10.03;32.20;100143.03;5036927;28;20177;-86
2022/03/22 08:06:10;;;;;;;44.40;15.67;;;;;;;11.78;32.00;100455.41;5055535;28;20569;-86
2022/03/22 08:08:43;;;;;;;33.17;17.27;;;;;;;10.67;31.62;100179.59;5055110;28;20512;-86
2022/03/22 08:11:09;;;;;;;31.50;16.37;;;;;;;12.29;31.23;100396.44;5054476;28;20649;-88
2022/03/22 08:13:36;;;;;;;23.37;10.13;;;;;;;12.43;31.06;100439.53;5056228;28;20530;-86
2022/03/22 08:16:02;;;;;;;29.03;14.53;;;;;;;12.90;31.00;100497.03;5054318;28;20164;-87
2022/03/22 08:18:28;;;;;;;28.40;15.57;;;;;;;12.75;31.37;100446.28;5052153;28;20189;-86
2022/03/22 08:20:53;;;;;;;28.67;15.43;;;;;;;12.16;30.55;100246.81;5050877;28;20609;-85
2022/03/22 08:23:19;;;;;;;23.53;12.47;;;;;;;13.07;30.39;100393.66;5055460;28;20161;-85
2022/03/22 08:25:45;;;;;;;25.57;15.33;;;;;;;11.89;30.74;100149.88;5055653;28;20232;-85
2022/03/22 08:28:11;;;;;;;19.90;11.10;;;;;;;13.55;30.17;100360.44;5056168;28;20223;-86
2022/03/22 08:30:39;;;;;;;36.67;18.13;;;;;;;13.12;30.18;100220.25;5062342;28;20703;-85
2022/03/22 08:33:07;;;;;;;31.97;16.63;;;;;;;14.33;30.31;100444.78;5057576;28;20193;-86
2022/03/22 08:35:33;;;;;;;17.83;10.40;;;;;;;12.82;30.47;100227.28;5057843;28;20626;-85
2022/03/22 08:37:58;;;;;;;30.87;16.03;;;;;;;13.81;30.31;100318.41;5065295;28;20398;-86
2022/03/22 08:40:27;;;;;;;20.07;8.93;;;;;;;13.97;29.46;100402.31;5070620;28;20734;-85
2022/03/22 08:42:53;;;;;;;32.57;15.40;;;;;;;12.79;30.16;100142.41;5037453;28;20191;-87
2022/03/22 08:45:24;;;;;;;15.30;9.53;;;;;;;13.62;30.48;100356.53;5057019;28;20211;-87
2022/03/22 08:47:51;;;;;;;16.10;9.23;;;;;;;13.87;30.59;100355.16;5061028;28;20181;-87
2022/03/22 08:50:21;;;;;;;16.87;10.70;;;;;;;14.70;30.34;100448.13;5040927;28;20176;-85
2022/03/22 08:52:48;;;;;;;17.37;10.10;;;;;;;14.21;29.73;100250.59;5053320;28;20199;-86
2022/03/22 08:55:15;;;;;;;23.33;14.07;;;;;;;15.74;28.62;100427.88;5055353;28;20212;-86
2022/03/22 08:57:41;;;;;;;22.27;13.17;;;;;;;14.21;29.23;100230.22;5054803;28;20179;-86
2022/03/22 09:00:10;;;;;;;18.43;10.67;;;;;;;14.67;30.08;100437.81;5054767;28;20173;-86
2022/03/22 09:02:36;;;;;;;19.80;11.37;;;;;;;14.63;29.45;100379.88;5054986;28;20153;-85
2022/03/22 09:07:47;;;;;;;15.87;8.43;;;;;;;14.15;30.49;100370.91;5054357;28;20639;-86
2022/03/22 09:10:14;;;;;;;19.80;10.93;;;;;;;14.16;31.23;100371.78;5053108;28;20158;-85
2022/03/22 09:12:40;;;;;;;21.07;10.47;;;;;;;13.68;30.97;100227.06;5048262;28;20351;-86
2022/03/22 09:15:06;;;;;;;15.27;9.33;;;;;;;13.99;30.67;100266.63;5047924;28;21040;-86
2022/03/22 09:17:32;;;;;;;21.53;11.77;;;;;;;14.67;30.15;100274.69;5035977;28;20161;-85
2022/03/22 09:19:57;;;;;;;17.23;10.10;;;;;;;15.75;29.74;100387.09;5056534;28;20166;-86
2022/03/22 09:22:23;;;;;;;23.17;12.63;;;;;;;15.69;30.16;100399.59;5085617;28;20175;-86
2022/03/22 09:24:48;;;;;;;16.63;9.17;;;;;;;13.80;29.70;100026.50;5082324;28;20187;-86
2022/03/22 09:27:13;;;;;;;13.90;9.70;;;;;;;15.39;29.93;100258.00;5059552;28;20185;-87
2022/03/22 09:29:39;;;;;;;15.70;9.10;;;;;;;15.23;29.33;100177.47;5078011;28;20184;-86
2022/03/22 09:32:04;;;;;;;18.07;11.80;;;;;;;15.10;29.75;100205.00;5067102;28;20200;-85
2022/03/22 09:34:32;;;;;;;28.93;15.07;;;;;;;16.54;29.44;100387.50;5082372;28;20173;-86
2022/03/22 09:36:58;;;;;;;25.73;13.90;;;;;;;14.20;29.56;100022.22;5078794;28;20153;-86
2022/03/22 09:39:24;;;;;;;24.73;16.13;;;;;;;15.56;29.83;100268.88;5066110;28;20258;-86
2022/03/22 09:41:51;;;;;;;14.27;8.63;;;;;;;15.35;29.51;100231.50;5063060;28;20165;-87
2022/03/22 09:44:18;;;;;;;22.17;11.90;;;;;;;15.42;29.27;100190.91;5055296;28;20158;-86
2022/03/22 09:46:50;;;;;;;13.03;8.60;;;;;;;16.88;28.89;100311.13;5054493;28;20185;-86
2022/03/22 09:49:16;;;;;;;11.33;7.60;;;;;;;15.92;28.58;100083.81;5063901;28;20168;-86
2022/03/22 09:51:47;;;;;;;13.67;9.00;;;;;;;17.49;28.39;100293.47;5054328;28;20170;-86
2022/03/22 09:54:14;;;;;;;14.83;7.90;;;;;;;17.51;28.99;100360.06;5053792;28;20223;-85
2022/03/22 09:56:40;;;;;;;13.70;7.60;;;;;;;16.53;30.21;100370.44;5054246;28;20165;-86
2022/03/22 09:59:06;;;;;;;14.50;7.93;;;;;;;13.72;31.73;100088.94;5040081;28;20182;-85
2022/03/22 10:01:33;;;;;;;13.97;8.00;;;;;;;14.78;32.25;100316.78;5062888;28;20188;-86
2022/03/22 10:04:04;;;;;;;12.03;7.10;;;;;;;14.39;32.26;100296.41;5055074;28;20199;-88
2022/03/22 10:06:30;;;;;;;11.13;6.73;;;;;;;15.55;31.37;100357.34;5049002;28;20681;-87
2022/03/22 10:08:56;;;;;;;9.70;6.77;;;;;;;14.95;30.48;100108.38;5035144;28;20255;-88
2022/03/22 10:11:21;;;;;;;14.83;7.93;;;;;;;15.93;31.11;100267.72;5023885;28;20173;-89
2022/03/22 10:13:51;;;;;;;11.50;7.00;;;;;;;15.40;31.54;100218.94;5052475;28;20177;-86
2022/03/22 10:16:17;;;;;;;15.03;7.63;;;;;;;16.33;30.67;100340.72;5057120;28;20162;-88
2022/03/22 10:18:42;;;;;;;10.80;6.40;;;;;;;16.17;30.21;100236.22;5042102;28;20168;-86
2022/03/22 10:21:08;;;;;;;18.53;8.70;;;;;;;14.76;31.28;100080.47;5065975;28;20176;-88
2022/03/22 10:23:46;;;;;;;13.10;7.03;;;;;;;15.13;31.02;100109.09;5073936;28;20247;-88
2022/03/22 10:26:12;;;;;;;17.93;10.27;;;;;;;15.63;30.84;100127.94;5080762;28;20204;-88
2022/03/22 10:28:49;;;;;;;10.03;6.50;;;;;;;16.70;30.09;100284.09;5060731;28;20283;-88
2022/03/22 10:31:16;;;;;;;10.07;6.60;;;;;;;15.01;30.85;100095.00;5081627;28;20184;-87
2022/03/22 10:33:49;;;;;;;16.27;7.80;;;;;;;14.59;31.20;100025.44;5060899;28;20181;-88
2022/03/22 10:36:15;;;;;;;16.17;7.13;;;;;;;15.52;30.74;100122.41;5074537;28;20234;-87
2022/03/22 10:38:40;;;;;;;8.27;5.50;;;;;;;16.04;29.71;100122.50;5050322;28;20236;-89
2022/03/22 10:41:07;;;;;;;10.47;4.90;;;;;;;17.90;28.54;100306.66;5073855;28;20207;-88
2022/03/22 10:43:36;;;;;;;15.70;7.27;;;;;;;16.13;28.66;99964.44;5061663;28;20164;-86
2022/03/22 10:46:02;;;;;;;9.93;6.03;;;;;;;16.55;28.44;100077.38;5042518;28;20278;-87
2022/03/22 10:48:38;;;;;;;9.30;5.17;;;;;;;16.72;28.13;100228.75;5034578;28;20667;-87
2022/03/22 10:51:06;;;;;;;10.10;5.43;;;;;;;15.59;28.07;100091.22;5047162;28;20548;-87
2022/03/22 10:53:34;;;;;;;16.20;6.77;;;;;;;16.76;28.57;100240.78;5033626;28;20280;-87
2022/03/22 10:56:10;;;;;;;15.17;6.40;;;;;;;15.51;28.19;100008.41;5034766;28;20169;-88
2022/03/22 10:58:36;;;;;;;12.80;4.80;;;;;;;16.15;28.10;100233.59;5053139;28;20156;-89
2022/03/22 11:01:03;;;;;;;7.10;4.60;;;;;;;16.29;28.45;100237.50;5051120;28;20192;-87
2022/03/22 11:03:32;;;;;;;12.93;5.57;;;;;;;15.70;27.48;100017.53;5051462;28;20540;-87
2022/03/22 11:06:02;;;;;;;9.17;5.00;;;;;;;15.23;27.44;99962.31;5055257;28;20192;-88
2022/03/22 11:08:27;;;;;;;17.57;5.30;;;;;;;16.39;27.33;100190.13;5057209;28;20211;-87
2022/03/22 11:10:54;;;;;;;12.00;5.63;;;;;;;16.15;27.96;100197.81;5060855;28;20193;-88
2022/03/22 11:13:20;;;;;;;11.27;5.00;;;;;;;16.40;28.03;100196.97;5055440;28;20618;-83
2022/03/22 11:15:48;;;;;;;10.60;5.10;;;;;;;16.25;27.71;100113.03;5051367;28;20158;-83
2022/03/22 11:18:15;;;;;;;13.00;4.47;;;;;;;16.69;27.14;100191.16;5051397;28;20165;-83
2022/03/22 11:20:59;;;;;;;12.57;4.73;;;;;;;17.10;26.66;100241.94;5034155;28;20220;-82
2022/03/22 11:23:27;;;;;;;21.37;6.40;;;;;;;16.75;27.33;100275.75;5053035;28;20652;-83
2022/03/22 11:25:53;;;;;;;16.63;5.60;;;;;;;16.32;27.66;100241.84;5070848;28;20180;-82
2022/03/22 11:28:21;;;;;;;9.10;4.83;;;;;;;16.39;28.09;100266.81;5070918;28;20173;-81
2022/03/22 11:30:47;;;;;;;12.50;5.40;;;;;;;16.45;28.19;100244.88;5070604;28;20233;-81
2022/03/22 11:36:13;;;;;;;12.63;5.30;;;;;;;16.67;28.23;100264.41;5065027;28;20188;-82
2022/03/22 11:38:42;;;;;;;9.87;4.67;;;;;;;16.66;27.45;100251.56;5060804;28;20263;-82
2022/03/22 11:44:08;;;;;;;13.13;5.77;;;;;;;16.55;28.37;100235.00;5050899;28;20267;-81
2022/03/22 11:46:34;;;;;;;10.63;4.83;;;;;;;16.47;27.94;100216.81;5050670;28;20204;-81